createdAt,value
2022-08-11T00:01:19.813Z,54.00
2022-08-11T00:03:54.785Z,54.00
2022-08-11T00:06:39.621Z,54.00
2022-08-11T00:09:18.558Z,53.60
2022-08-11T00:11:49.130Z,54.00
2022-08-11T00:14:21.058Z,54.00
2022-08-11T00:17:02.750Z,51.00
2022-08-11T00:20:13.866Z,54.00
2022-08-11T00:22:24.529Z,57.00
2022-08-11T00:24:55.126Z,54.20
2022-08-11T00:27:35.700Z,52.40
2022-08-11T00:30:05.581Z,53.80
2022-08-11T00:32:33.757Z,54.80
2022-08-11T00:35:51.170Z,53.60
2022-08-11T00:37:54.895Z,54.00
2022-08-11T00:40:41.602Z,54.00
2022-08-11T00:43:39.515Z,54.00
2022-08-11T00:46:09.511Z,54.20
2022-08-11T00:49:03.755Z,54.40
2022-08-11T00:52:04.979Z,54.00
2022-08-11T00:54:56.205Z,54.00
2022-08-11T00:57:51.736Z,54.00
2022-08-11T01:00:24.403Z,54.00
2022-08-11T01:03:13.964Z,54.00
2022-08-11T01:05:46.230Z,54.00
2022-08-11T01:08:27.845Z,54.00
2022-08-11T01:11:24.285Z,55.00
2022-08-11T01:14:16.336Z,56.00
2022-08-11T01:17:09.988Z,54.00
2022-08-11T01:20:47.463Z,55.00
2022-08-11T01:23:00.923Z,54.00
2022-08-11T01:25:57.601Z,54.00
2022-08-11T01:29:05.972Z,52.00
2022-08-11T01:31:44.906Z,57.40
2022-08-11T01:34:27.145Z,53.60
2022-08-11T01:37:12.531Z,55.60
2022-08-11T01:40:01.187Z,54.60
2022-08-11T01:43:24.216Z,56.20
2022-08-11T01:46:06.382Z,58.20
2022-08-11T01:48:41.181Z,53.20
2022-08-11T01:51:44.744Z,54.00
2022-08-11T01:54:41.405Z,54.80
2022-08-11T01:57:13.962Z,54.00
2022-08-11T01:59:52.544Z,54.20
2022-08-11T02:02:45.341Z,52.80
2022-08-11T02:05:29.901Z,54.00
2022-08-11T02:08:15.494Z,54.00
2022-08-11T02:11:15.983Z,54.00
2022-08-11T02:13:57.911Z,54.00
2022-08-11T02:16:24.862Z,54.80
2022-08-11T02:19:36.584Z,54.00
2022-08-11T02:22:28.196Z,54.00
2022-08-11T02:25:02.262Z,54.20
2022-08-11T02:28:15.593Z,54.00
2022-08-11T02:32:14.871Z,54.80
2022-08-11T02:34:59.439Z,54.00
2022-08-11T02:37:33.269Z,54.60
2022-08-11T02:40:06.377Z,54.60
2022-08-11T02:42:45.035Z,54.20
2022-08-11T02:45:30.909Z,54.00
2022-08-11T02:48:35.457Z,54.80
2022-08-11T02:51:26.196Z,53.20
2022-08-11T02:54:34.666Z,52.80
2022-08-11T02:57:11.280Z,53.60
2022-08-11T03:00:07.810Z,54.00
2022-08-11T03:02:56.302Z,53.60
2022-08-11T03:05:52.868Z,54.00
2022-08-11T03:08:30.827Z,54.00
2022-08-11T03:11:22.462Z,55.00
2022-08-11T03:14:35.755Z,54.00
2022-08-11T03:17:25.661Z,61.20
2022-08-11T03:20:37.793Z,53.20
2022-08-11T03:23:33.398Z,54.00
2022-08-11T03:26:09.485Z,53.20
2022-08-11T03:28:48.802Z,53.60
2022-08-11T03:31:27.639Z,53.20
2022-08-11T03:34:07.882Z,53.20
2022-08-11T03:37:15.714Z,52.00
2022-08-11T03:39:56.575Z,54.40
2022-08-11T03:42:32.727Z,52.40
2022-08-11T03:45:21.077Z,53.60
2022-08-11T03:47:54.941Z,52.00
2022-08-11T03:50:43.947Z,53.80
2022-08-11T03:53:13.978Z,54.00
2022-08-11T03:56:06.835Z,52.40
2022-08-11T03:59:24.257Z,53.20
2022-08-11T04:02:28.036Z,53.20
2022-08-11T04:05:01.113Z,54.00
2022-08-11T04:08:01.631Z,52.40
2022-08-11T04:10:49.319Z,53.60
2022-08-11T04:14:20.541Z,57.00
2022-08-11T04:17:09.031Z,54.00
2022-08-11T04:20:03.973Z,54.00
2022-08-11T04:23:07.942Z,53.20
2022-08-11T04:26:01.854Z,52.00
2022-08-11T04:28:53.460Z,52.40
2022-08-11T04:32:00.632Z,52.00
2022-08-11T04:35:10.458Z,55.20
2022-08-11T04:37:55.241Z,52.00
2022-08-11T04:40:37.387Z,52.00
2022-08-11T04:43:28.797Z,54.00
2022-08-11T04:46:27.977Z,52.40
2022-08-11T04:49:34.224Z,52.00
2022-08-11T04:52:38.510Z,52.00
2022-08-11T04:55:38.995Z,56.80
2022-08-11T04:59:15.435Z,52.00
2022-08-11T05:02:07.112Z,53.60
2022-08-11T05:05:35.944Z,52.00
2022-08-11T05:08:53.674Z,52.40
2022-08-11T05:11:38.940Z,52.00
2022-08-11T05:15:04.549Z,52.00
2022-08-11T05:17:56.810Z,53.60
2022-08-11T05:20:44.606Z,52.00
2022-08-11T05:23:45.670Z,59.20
2022-08-11T05:26:46.347Z,52.00
2022-08-11T05:29:47.772Z,52.00
2022-08-11T05:32:43.514Z,53.00
2022-08-11T05:36:02.362Z,54.80
2022-08-11T05:38:44.195Z,52.80
2022-08-11T05:41:43.270Z,53.20
2022-08-11T05:44:36.743Z,52.00
2022-08-11T05:47:28.947Z,55.00
2022-08-11T05:50:28.926Z,53.60
2022-08-11T05:53:22.911Z,54.00
2022-08-11T05:56:10.867Z,52.00
2022-08-11T05:58:51.889Z,47.40
2022-08-11T06:01:31.478Z,54.60
2022-08-11T06:04:20.620Z,52.40
2022-08-11T06:07:10.822Z,54.00
2022-08-11T06:09:47.809Z,52.00
2022-08-11T06:12:25.072Z,54.00
2022-08-11T06:14:58.919Z,54.00
2022-08-11T06:17:38.930Z,54.20
2022-08-11T06:20:12.168Z,54.20
2022-08-11T06:22:51.011Z,54.60
2022-08-11T06:25:21.386Z,56.20
2022-08-11T06:27:59.182Z,55.40
2022-08-11T06:30:43.041Z,55.80
2022-08-11T06:33:32.230Z,57.20
2022-08-11T06:36:31.299Z,55.80
2022-08-11T06:39:14.923Z,54.00
2022-08-11T06:41:56.975Z,56.60
2022-08-11T06:44:41.596Z,54.00
2022-08-11T06:47:17.625Z,66.20
2022-08-11T06:50:07.262Z,55.40
2022-08-11T06:52:43.816Z,57.00
2022-08-11T06:55:58.015Z,56.20
2022-08-11T06:58:51.865Z,57.20
2022-08-11T07:01:46.800Z,57.00
2022-08-11T07:04:37.248Z,57.60
2022-08-11T07:07:47.687Z,56.80
2022-08-11T07:10:51.080Z,56.20
2022-08-11T07:13:45.625Z,57.00
2022-08-11T07:16:25.002Z,57.20
2022-08-11T07:19:18.205Z,58.00
2022-08-11T07:22:08.546Z,57.00
2022-08-11T07:25:21.531Z,58.40
2022-08-11T07:28:16.583Z,58.00
2022-08-11T07:30:58.779Z,59.60
2022-08-11T07:34:06.500Z,59.60
2022-08-11T07:36:41.221Z,57.00
2022-08-11T07:39:21.325Z,57.80
2022-08-11T07:41:53.665Z,58.40
2022-08-11T07:44:34.946Z,60.00
2022-08-11T07:47:23.177Z,58.80
2022-08-11T07:50:12.668Z,60.40
2022-08-11T07:52:52.807Z,61.00
2022-08-11T07:55:48.781Z,63.40
2022-08-11T07:58:44.866Z,60.00
2022-08-11T08:01:37.986Z,61.40
2022-08-11T08:04:26.247Z,60.00
2022-08-11T08:07:12.756Z,60.00
2022-08-11T08:10:00.919Z,60.00
2022-08-11T08:12:47.929Z,60.80
2022-08-11T08:15:35.961Z,60.60
2022-08-11T08:18:09.442Z,61.80
2022-08-11T08:20:56.194Z,60.00
2022-08-11T08:23:34.054Z,60.60
2022-08-11T08:26:28.220Z,61.00
2022-08-11T08:29:17.369Z,61.40
2022-08-11T08:31:46.546Z,61.20
2022-08-11T08:34:15.796Z,60.60
2022-08-11T08:36:45.030Z,61.80
2022-08-11T08:39:14.608Z,60.60
2022-08-11T08:41:43.977Z,60.00
2022-08-11T08:44:37.358Z,61.80
2022-08-11T08:47:06.263Z,62.20
2022-08-11T08:49:42.240Z,61.00
2022-08-11T08:52:25.354Z,60.80
2022-08-11T08:55:07.055Z,62.20
2022-08-11T08:57:39.407Z,61.40
2022-08-11T09:00:12.546Z,61.80
2022-08-11T09:02:41.947Z,61.00
2022-08-11T09:05:10.513Z,61.00
2022-08-11T09:07:40.763Z,60.80
2022-08-11T09:10:12.136Z,61.00
2022-08-11T09:12:43.025Z,61.40
2022-08-11T09:15:12.099Z,60.40
2022-08-11T09:17:48.069Z,60.00
2022-08-11T09:20:21.037Z,61.60
2022-08-11T09:24:06.665Z,60.80
2022-08-11T09:26:19.766Z,61.00
2022-08-11T09:28:50.816Z,60.80
2022-08-11T09:31:40.602Z,61.00
2022-08-11T09:34:13.614Z,61.00
2022-08-11T09:37:02.321Z,62.60
2022-08-11T09:39:55.003Z,61.40
2022-08-11T09:42:43.970Z,63.20
2022-08-11T09:45:16.908Z,61.80
2022-08-11T09:47:51.570Z,61.00
2022-08-11T09:50:19.555Z,65.80
2022-08-11T09:53:41.065Z,63.20
2022-08-11T09:55:49.950Z,63.60
2022-08-11T09:58:42.605Z,61.80
2022-08-11T10:01:08.216Z,66.00
2022-08-11T10:03:41.622Z,63.20
2022-08-11T10:06:34.161Z,64.80
2022-08-11T10:09:06.518Z,63.00
2022-08-11T10:11:36.932Z,61.00
2022-08-11T10:14:33.178Z,64.00
2022-08-11T10:17:09.873Z,63.00
2022-08-11T10:19:38.586Z,63.60
2022-08-11T10:22:27.552Z,64.00
2022-08-11T10:25:19.837Z,63.80
2022-08-11T10:28:28.350Z,64.00
2022-08-11T10:31:05.700Z,63.60
2022-08-11T10:33:59.517Z,63.60
2022-08-11T10:36:50.130Z,61.00
2022-08-11T10:39:32.591Z,63.00
2022-08-11T10:42:34.929Z,66.00
2022-08-11T10:45:28.728Z,64.40
2022-08-11T10:47:58.758Z,66.00
2022-08-11T10:50:45.350Z,64.00
2022-08-11T10:53:32.892Z,63.00
2022-08-11T10:56:18.797Z,64.00
2022-08-11T10:58:49.753Z,62.60
2022-08-11T11:01:23.007Z,64.80
2022-08-11T11:04:05.085Z,63.00
2022-08-11T11:06:37.541Z,61.00
2022-08-11T11:09:11.824Z,61.40
2022-08-11T11:12:03.904Z,63.00
2022-08-11T11:14:58.208Z,62.20
2022-08-11T11:17:58.714Z,64.00
2022-08-11T11:20:47.093Z,63.00
2022-08-11T11:23:36.188Z,62.60
2022-08-11T11:26:27.060Z,63.00
2022-08-11T11:29:31.827Z,63.00
2022-08-11T11:32:24.255Z,63.00
2022-08-11T11:35:10.199Z,63.00
2022-08-11T11:37:39.882Z,62.60
2022-08-11T11:40:13.038Z,62.60
2022-08-11T11:42:43.837Z,63.00
2022-08-11T11:45:24.119Z,63.00
2022-08-11T11:47:54.833Z,61.40
2022-08-11T11:50:31.852Z,61.00
2022-08-11T11:53:02.350Z,61.80
2022-08-11T11:55:30.851Z,63.60
2022-08-11T11:58:19.281Z,63.00
2022-08-11T12:01:06.200Z,63.60
2022-08-11T12:03:36.314Z,63.60
2022-08-11T12:06:04.881Z,63.00
2022-08-11T12:08:32.767Z,63.60
2022-08-11T12:11:25.179Z,63.40
2022-08-11T12:13:57.636Z,63.80
2022-08-11T12:16:34.633Z,63.60
2022-08-11T12:19:12.077Z,64.00
2022-08-11T12:22:00.909Z,66.00
2022-08-11T12:24:49.551Z,66.00
2022-08-11T12:27:28.606Z,65.20
2022-08-11T12:30:22.799Z,66.00
2022-08-11T12:32:50.569Z,64.00
2022-08-11T12:35:17.727Z,64.00
2022-08-11T12:38:09.406Z,64.00
2022-08-11T12:41:14.957Z,64.00
2022-08-11T12:44:05.357Z,66.00
2022-08-11T12:46:35.837Z,64.00
2022-08-11T12:49:47.507Z,64.00
2022-08-11T12:52:22.892Z,63.60
2022-08-11T12:55:01.435Z,66.00
2022-08-11T12:57:55.809Z,64.00
2022-08-11T13:00:42.989Z,63.80
2022-08-11T13:03:31.040Z,64.00
2022-08-11T13:06:04.365Z,65.60
2022-08-11T13:08:35.876Z,65.20
2022-08-11T13:11:56.719Z,66.00
2022-08-11T13:14:15.209Z,66.00
2022-08-11T13:17:03.941Z,66.00
2022-08-11T13:19:32.576Z,68.00
2022-08-11T13:22:03.486Z,66.00
2022-08-11T13:24:34.451Z,64.00
2022-08-11T13:27:08.792Z,64.00
2022-08-11T13:29:42.113Z,64.80
2022-08-11T13:32:13.399Z,64.80
2022-08-11T13:34:47.122Z,66.00
2022-08-11T13:37:20.869Z,66.20
2022-08-11T13:40:10.250Z,66.00
2022-08-11T13:42:42.500Z,66.00
2022-08-11T13:45:11.061Z,64.00
2022-08-11T13:48:00.612Z,65.60
2022-08-11T13:50:56.359Z,66.00
2022-08-11T13:53:35.095Z,66.60
2022-08-11T13:56:35.426Z,66.00
2022-08-11T13:59:16.472Z,64.00
2022-08-11T14:02:22.272Z,66.60
2022-08-11T14:05:18.159Z,64.00
2022-08-11T14:07:54.333Z,63.80
2022-08-11T14:10:33.454Z,63.60
2022-08-11T14:13:41.685Z,64.00
2022-08-11T14:16:45.846Z,65.20
2022-08-11T14:19:15.490Z,64.00
2022-08-11T14:22:07.823Z,64.80
2022-08-11T14:24:59.054Z,66.20
2022-08-11T14:28:30.904Z,66.00
2022-08-11T14:31:01.268Z,66.00
2022-08-11T14:33:58.430Z,64.00
2022-08-11T14:36:20.985Z,64.00
2022-08-11T14:39:17.772Z,64.00
2022-08-11T14:42:10.863Z,64.00
2022-08-11T14:45:04.347Z,64.00
2022-08-11T14:47:47.627Z,64.00
2022-08-11T14:50:37.509Z,63.00
2022-08-11T14:53:10.852Z,66.00
2022-08-11T14:56:02.501Z,66.60
2022-08-11T14:58:31.699Z,63.00
2022-08-11T15:01:28.961Z,64.00
2022-08-11T15:04:34.167Z,63.40
2022-08-11T15:06:55.701Z,64.00
2022-08-11T15:09:23.408Z,64.00
2022-08-11T15:12:33.326Z,64.40
2022-08-11T15:15:17.721Z,63.00
2022-08-11T15:17:53.360Z,62.20
2022-08-11T15:20:40.477Z,63.00
2022-08-11T15:23:47.350Z,63.40
2022-08-11T15:26:58.120Z,62.20
2022-08-11T15:30:05.394Z,63.00
2022-08-11T15:32:53.540Z,63.40
2022-08-11T15:35:39.954Z,63.00
2022-08-11T15:38:23.199Z,63.00
2022-08-11T15:41:20.317Z,62.60
2022-08-11T15:44:15.051Z,63.20
2022-08-11T15:46:52.508Z,62.20
2022-08-11T15:50:11.813Z,63.00
2022-08-11T15:52:32.259Z,63.00
2022-08-11T15:55:05.895Z,66.00
2022-08-11T15:57:56.295Z,63.40
2022-08-11T16:00:45.862Z,62.20
2022-08-11T16:04:06.195Z,63.60
2022-08-11T16:06:33.597Z,61.40
2022-08-11T16:09:18.302Z,61.00
2022-08-11T16:11:47.952Z,61.00
2022-08-11T16:14:42.273Z,61.00
2022-08-11T16:17:17.427Z,61.00
2022-08-11T16:19:51.721Z,62.20
2022-08-11T16:22:40.080Z,61.00
2022-08-11T16:27:02.420Z,61.00
2022-08-11T16:28:09.604Z,63.00
2022-08-11T16:30:51.515Z,61.00
2022-08-11T16:33:22.550Z,61.00
2022-08-11T16:36:32.375Z,64.40
2022-08-11T16:39:02.168Z,63.00
2022-08-11T16:41:51.273Z,63.00
2022-08-11T16:44:38.968Z,63.00
2022-08-11T16:47:24.150Z,63.00
2022-08-11T16:50:12.132Z,63.20
2022-08-11T16:52:39.317Z,63.00
2022-08-11T16:55:06.843Z,63.00
2022-08-11T16:57:53.741Z,61.00
2022-08-11T17:00:21.270Z,61.80
2022-08-11T17:03:11.564Z,62.60
2022-08-11T17:06:12.947Z,61.00
2022-08-11T17:09:05.048Z,61.40
2022-08-11T17:11:58.755Z,63.00
2022-08-11T17:14:56.209Z,63.20
2022-08-11T17:17:45.927Z,61.80
2022-08-11T17:20:42.524Z,62.20
2022-08-11T17:23:26.290Z,61.80
2022-08-11T17:26:03.314Z,60.80
2022-08-11T17:28:34.131Z,64.60
2022-08-11T17:31:22.197Z,61.00
2022-08-11T17:34:10.332Z,62.20
2022-08-11T17:36:44.585Z,60.80
2022-08-11T17:39:13.643Z,61.00
2022-08-11T17:42:01.244Z,61.00
2022-08-11T17:44:49.655Z,63.00
2022-08-11T17:47:38.080Z,63.00
2022-08-11T17:50:09.301Z,61.00
2022-08-11T17:53:05.585Z,63.00
2022-08-11T17:55:53.995Z,62.60
2022-08-11T17:58:42.155Z,61.00
2022-08-11T18:01:13.315Z,62.20
2022-08-11T18:03:56.475Z,61.40
2022-08-11T18:06:34.170Z,62.00
2022-08-11T18:09:23.580Z,61.00
2022-08-11T18:12:12.943Z,61.40
2022-08-11T18:15:03.087Z,61.00
2022-08-11T18:17:49.231Z,64.00
2022-08-11T18:20:36.274Z,61.00
2022-08-11T18:23:45.684Z,60.80
2022-08-11T18:26:38.273Z,61.00
2022-08-11T18:29:26.543Z,62.20
2022-08-11T18:32:21.949Z,60.00
2022-08-11T18:35:13.814Z,60.00
2022-08-11T18:38:06.132Z,60.00
2022-08-11T18:40:54.151Z,61.00
2022-08-11T18:43:43.683Z,60.00
2022-08-11T18:46:32.301Z,60.80
2022-08-11T18:50:00.932Z,60.00
2022-08-11T18:52:35.717Z,61.00
2022-08-11T18:55:24.099Z,61.00
2022-08-11T18:58:12.885Z,61.00
2022-08-11T19:01:00.997Z,60.20
2022-08-11T19:03:49.872Z,61.40
2022-08-11T19:06:41.785Z,61.00
2022-08-11T19:09:35.228Z,61.00
2022-08-11T19:12:25.467Z,61.40
2022-08-11T19:15:12.802Z,60.60
2022-08-11T19:18:01.258Z,60.80
2022-08-11T19:20:49.976Z,60.20
2022-08-11T19:23:40.510Z,60.00
2022-08-11T19:26:27.633Z,60.20
2022-08-11T19:30:07.644Z,60.80
2022-08-11T19:32:21.643Z,60.20
2022-08-11T19:35:09.313Z,60.80
2022-08-11T19:37:57.228Z,60.40
2022-08-11T19:40:43.787Z,62.80
2022-08-11T19:43:30.504Z,60.00
2022-08-11T19:46:20.074Z,59.60
2022-08-11T19:49:10.335Z,60.00
2022-08-11T19:51:57.442Z,61.00
2022-08-11T19:54:49.423Z,60.00
2022-08-11T19:57:39.935Z,58.00
2022-08-11T20:00:32.921Z,58.40
2022-08-11T20:03:20.555Z,58.80
2022-08-11T20:06:09.098Z,58.80
2022-08-11T20:08:59.368Z,58.00
2022-08-11T20:11:51.150Z,60.40
2022-08-11T20:14:40.035Z,57.00
2022-08-11T20:17:31.504Z,60.00
2022-08-11T20:20:20.193Z,58.80
2022-08-11T20:23:09.762Z,60.00
2022-08-11T20:26:13.963Z,61.00
2022-08-11T20:29:09.001Z,62.80
2022-08-11T20:31:56.264Z,62.00
2022-08-11T20:34:42.754Z,59.20
2022-08-11T20:37:31.287Z,58.40
2022-08-11T20:40:23.821Z,60.80
2022-08-11T20:44:06.286Z,59.20
2022-08-11T20:46:18.537Z,58.00
2022-08-11T20:49:07.198Z,58.00
2022-08-11T20:51:55.248Z,58.00
2022-08-11T20:54:44.656Z,58.00
2022-08-11T20:57:57.774Z,58.00
2022-08-11T21:00:40.009Z,60.40
2022-08-11T21:03:36.572Z,57.80
2022-08-11T21:06:34.785Z,58.00
2022-08-11T21:09:58.101Z,57.80
2022-08-11T21:15:47.229Z,58.00
2022-08-11T21:18:29.546Z,58.00
2022-08-11T21:21:18.560Z,57.80
2022-08-11T21:24:07.555Z,58.00
2022-08-11T21:27:01.554Z,58.40
2022-08-11T21:29:52.951Z,59.20
2022-08-11T21:32:40.600Z,58.00
2022-08-11T21:35:28.164Z,57.40
2022-08-11T21:38:16.250Z,60.00
2022-08-11T21:41:01.850Z,57.60
2022-08-11T21:43:50.769Z,58.80
2022-08-11T21:46:39.902Z,57.80
2022-08-11T21:49:28.860Z,57.20
2022-08-11T21:52:14.865Z,59.60
2022-08-11T21:55:01.236Z,57.20
2022-08-11T21:57:50.285Z,58.00
2022-08-11T22:00:36.995Z,57.80
2022-08-11T22:03:23.596Z,57.80
2022-08-11T22:06:11.171Z,58.00
2022-08-11T22:08:56.891Z,57.00
2022-08-11T22:11:42.459Z,58.40
2022-08-11T22:14:28.142Z,59.00
2022-08-11T22:17:13.626Z,58.00
2022-08-11T22:20:01.057Z,57.00
2022-08-11T22:22:52.860Z,57.80
2022-08-11T22:25:44.271Z,57.00
2022-08-11T22:28:38.219Z,57.00
2022-08-11T22:31:25.906Z,57.00
2022-08-11T22:34:11.564Z,59.20
2022-08-11T22:36:58.892Z,58.40
2022-08-11T22:39:45.684Z,60.60
2022-08-11T22:42:48.491Z,56.20
2022-08-11T22:45:34.446Z,58.00
2022-08-11T22:48:23.181Z,57.00
2022-08-11T22:51:10.335Z,57.20
2022-08-11T22:53:59.104Z,57.00
2022-08-11T22:56:49.710Z,57.20
2022-08-11T22:59:37.277Z,62.80
2022-08-11T23:02:24.929Z,57.40
2022-08-11T23:05:11.243Z,57.20
2022-08-11T23:07:57.346Z,57.00
2022-08-11T23:10:45.338Z,57.40
2022-08-11T23:13:31.799Z,55.00
2022-08-11T23:16:17.890Z,58.60
2022-08-11T23:19:04.565Z,60.00
2022-08-11T23:21:53.021Z,54.60
2022-08-11T23:24:40.188Z,55.00
2022-08-11T23:27:28.280Z,54.80
2022-08-11T23:30:19.246Z,54.40
2022-08-11T23:33:08.251Z,55.00
2022-08-11T23:35:57.924Z,55.00
2022-08-11T23:38:47.234Z,55.40
2022-08-11T23:41:33.715Z,58.40
2022-08-11T23:44:24.399Z,55.00
2022-08-11T23:47:14.173Z,54.80
2022-08-11T23:50:01.407Z,54.00
2022-08-11T23:52:48.356Z,59.40
2022-08-11T23:55:38.412Z,56.40
2022-08-11T23:58:28.064Z,59.00
